Aérodrome :
LOGIN :

S'inscrire | Disclaimer

   EN    FR    IT 

 










Légende :    VFR   VFR Marginal   IFR   IFR Intensif   IFR Très Intensif
Visi : 
Plafond : 
>= 8 km
>= 3000ft
5 à 8 km
1000 à 3000 ft
1500m à 5 km
500 à 1000 ft
800 à 1500m
200 à 500 ft
< 800m
< 200 ft
Symboles :   Orages  Brouillard  Fortes neiges  Fortes précipitations  Vent > 20 kt
SIGMETs :   Divers  Orages  Givrage  Turbulence  Onde Orograph.  Cendres Volcan.







- Altitude de l'aérodrome : 124 ft
- Code IATA : RNS
- Voir les cartes d'approche


LFRN - Rennes

DERNIER METAR :
  • 152330Z AUTO 23005KT CAVOK 07/07 Q1010 TEMPO 4000 SHRA

METARs EXPIRÉS :
  • 152300Z AUTO 24006KT CAVOK 08/07 Q1010 TEMPO 4000 SHRA SCT030TCU
  • 152230Z AUTO 25006KT CAVOK 08/07 Q1010 TEMPO 4000 SHRA SCT030TCU
  • 152200Z AUTO 26005KT CAVOK 08/06 Q1010 NOSIG
  • 152130Z AUTO 25006KT CAVOK 08/07 Q1010 NOSIG
  • 152100Z AUTO 24007KT 9999 FEW031 09/07 Q1010 NOSIG

TAF TAF LFRN
Valide du 16 à 00h jusqu'au 17 à 00h UTC


152300Z 1600/1624 24010KT 9999 BKN030
PROB30
TEMPO 1600/1603 4000 SHRA
PROB40
TEMPO 1603/1610 3000 BR
TEMPO 1612/1618 19015G25KT 4000 SHRA BKN015CB
PROB30
TEMPO 1613/1616 19015G35KT 2000 TSRA BKN012CB
BECMG 1616/1618 26010KT
PROB30
TEMPO 1622/1624 4000 SHRA BKN025TCU
ATIS : +33 2 99 67 72 50
Pas de NOTAMs connus pour ce terrain.



MET'MAP, la Météo Aéronautique d'un coup d'oeil ! - Copyright ORBIFLY Décembre 2007 - Disclaimer

ORBIFLY MET'MAP TEAM :

Programmation & Développement : Alexandra Zaïnal
Conception & Développement : Baudouin d'Aumeries
Co-Programmation & Développement : Marc-Olivier Méhu
Soutien technique & logistique : Manuel Goepfert

Contact : metmap@orbifly.com




SOURCES & CREDITS :

   NOAA